Аэропорт: Богашево. Томск

ICAO: UNTT

METAR:
2020-10-24 05:30:00
UNTT 240530Z 24005MPS 7000 -SHSN SCT011 BKN020CB M01/M03 Q1017 R21/590140 NOSIG RMK QFE748
METAR:
2020-10-24 03:13:00
TAF AMD UNTT 240313Z 2403/2412 23006G14MPS 2000 SHSNRA FEW007 BKN017CB TEMPO 2403/2406 0500 +SHSNRA FEW004 BKN016CB BECMG 2406/2409 6000 -SHSNRA